sensor_id;sensor_type;location;lat;lon;timestamp;temperature;humidity
45685;DHT22;46836;48.388;16.210;2023-02-02T00:01:55;2.50;99.90
45685;DHT22;46836;48.388;16.210;2023-02-02T00:04:31;2.50;99.90
45685;DHT22;46836;48.388;16.210;2023-02-02T00:06:59;2.50;99.90
45685;DHT22;46836;48.388;16.210;2023-02-02T00:09:28;2.50;99.90
45685;DHT22;46836;48.388;16.210;2023-02-02T00:11:56;2.50;99.90
45685;DHT22;46836;48.388;16.210;2023-02-02T00:14:24;2.60;99.90
45685;DHT22;46836;48.388;16.210;2023-02-02T00:16:53;2.60;99.90
45685;DHT22;46836;48.388;16.210;2023-02-02T00:19:26;2.60;99.90
45685;DHT22;46836;48.388;16.210;2023-02-02T00:21:54;2.70;99.90
45685;DHT22;46836;48.388;16.210;2023-02-02T00:24:22;2.70;99.90
45685;DHT22;46836;48.388;16.210;2023-02-02T00:26:52;2.70;99.90
45685;DHT22;46836;48.388;16.210;2023-02-02T00:29:21;2.70;99.90
45685;DHT22;46836;48.388;16.210;2023-02-02T00:31:49;2.70;99.90
45685;DHT22;46836;48.388;16.210;2023-02-02T00:34:17;2.70;99.90
45685;DHT22;46836;48.388;16.210;2023-02-02T00:36:45;2.70;99.90
45685;DHT22;46836;48.388;16.210;2023-02-02T00:39:22;2.80;99.90
45685;DHT22;46836;48.388;16.210;2023-02-02T00:41:52;2.80;99.90
45685;DHT22;46836;48.388;16.210;2023-02-02T00:44:19;2.80;99.90
45685;DHT22;46836;48.388;16.210;2023-02-02T00:47:04;2.80;99.90
45685;DHT22;46836;48.388;16.210;2023-02-02T00:49:31;2.80;99.90
45685;DHT22;46836;48.388;16.210;2023-02-02T00:51:58;2.80;99.90
45685;DHT22;46836;48.388;16.210;2023-02-02T00:54:26;2.80;99.90
45685;DHT22;46836;48.388;16.210;2023-02-02T00:56:53;2.80;99.90
45685;DHT22;46836;48.388;16.210;2023-02-02T00:59:21;2.80;99.90
45685;DHT22;46836;48.388;16.210;2023-02-02T01:01:48;2.80;99.90
45685;DHT22;46836;48.388;16.210;2023-02-02T01:04:15;2.80;99.90
45685;DHT22;46836;48.388;16.210;2023-02-02T01:06:42;2.80;99.90
45685;DHT22;46836;48.388;16.210;2023-02-02T01:09:09;2.80;99.90
45685;DHT22;46836;48.388;16.210;2023-02-02T01:11:36;2.70;99.90
45685;DHT22;46836;48.388;16.210;2023-02-02T01:14:03;2.70;99.90
45685;DHT22;46836;48.388;16.210;2023-02-02T01:16:31;2.70;99.90
45685;DHT22;46836;48.388;16.210;2023-02-02T01:18:58;2.70;99.90
45685;DHT22;46836;48.388;16.210;2023-02-02T01:21:25;2.70;99.90
45685;DHT22;46836;48.388;16.210;2023-02-02T01:23:52;2.70;99.90
45685;DHT22;46836;48.388;16.210;2023-02-02T01:26:19;2.60;99.90
45685;DHT22;46836;48.388;16.210;2023-02-02T01:28:47;2.60;99.90
45685;DHT22;46836;48.388;16.210;2023-02-02T01:31:16;2.60;99.90
45685;DHT22;46836;48.388;16.210;2023-02-02T01:33:45;2.60;99.90
45685;DHT22;46836;48.388;16.210;2023-02-02T01:36:16;2.60;99.90
45685;DHT22;46836;48.388;16.210;2023-02-02T01:38:44;2.50;99.90
45685;DHT22;46836;48.388;16.210;2023-02-02T01:41:18;2.50;99.90
45685;DHT22;46836;48.388;16.210;2023-02-02T01:48:47;2.50;99.90
45685;DHT22;46836;48.388;16.210;2023-02-02T01:51:18;2.50;99.90
45685;DHT22;46836;48.388;16.210;2023-02-02T01:53:48;2.50;99.90
45685;DHT22;46836;48.388;16.210;2023-02-02T01:56:21;2.50;99.90
45685;DHT22;46836;48.388;16.210;2023-02-02T01:58:50;2.50;99.90
45685;DHT22;46836;48.388;16.210;2023-02-02T02:01:17;2.50;99.90
45685;DHT22;46836;48.388;16.210;2023-02-02T02:03:45;2.50;99.90
45685;DHT22;46836;48.388;16.210;2023-02-02T02:06:14;2.50;99.90
45685;DHT22;46836;48.388;16.210;2023-02-02T02:08:52;2.40;99.90
45685;DHT22;46836;48.388;16.210;2023-02-02T02:11:22;2.50;99.90
45685;DHT22;46836;48.388;16.210;2023-02-02T02:13:52;2.50;99.90
45685;DHT22;46836;48.388;16.210;2023-02-02T02:20:09;2.50;99.90
45685;DHT22;46836;48.388;16.210;2023-02-02T02:27:06;2.40;99.90
45685;DHT22;46836;48.388;16.210;2023-02-02T02:30:01;2.30;99.90
45685;DHT22;46836;48.388;16.210;2023-02-02T02:32:44;2.20;99.90
45685;DHT22;46836;48.388;16.210;2023-02-02T02:38:24;2.20;99.90
45685;DHT22;46836;48.388;16.210;2023-02-02T02:41:21;2.10;99.90
45685;DHT22;46836;48.388;16.210;2023-02-02T02:44:07;2.10;99.90
45685;DHT22;46836;48.388;16.210;2023-02-02T02:46:36;2.00;99.90
45685;DHT22;46836;48.388;16.210;2023-02-02T02:49:10;2.00;99.90
45685;DHT22;46836;48.388;16.210;2023-02-02T02:54:12;2.00;99.90
45685;DHT22;46836;48.388;16.210;2023-02-02T02:56:43;1.90;99.90
45685;DHT22;46836;48.388;16.210;2023-02-02T03:07:42;1.90;99.90
45685;DHT22;46836;48.388;16.210;2023-02-02T03:10:12;1.80;99.90
45685;DHT22;46836;48.388;16.210;2023-02-02T03:12:45;1.80;99.90
45685;DHT22;46836;48.388;16.210;2023-02-02T03:15:13;1.80;99.90
45685;DHT22;46836;48.388;16.210;2023-02-02T03:17:42;1.80;99.90
45685;DHT22;46836;48.388;16.210;2023-02-02T03:20:10;1.80;99.90
45685;DHT22;46836;48.388;16.210;2023-02-02T03:22:37;1.80;99.90
45685;DHT22;46836;48.388;16.210;2023-02-02T03:25:06;1.70;99.90
45685;DHT22;46836;48.388;16.210;2023-02-02T03:27:33;1.70;99.90
45685;DHT22;46836;48.388;16.210;2023-02-02T03:30:00;1.70;99.90
45685;DHT22;46836;48.388;16.210;2023-02-02T03:32:28;1.80;99.90
45685;DHT22;46836;48.388;16.210;2023-02-02T03:34:55;1.80;99.90
45685;DHT22;46836;48.388;16.210;2023-02-02T03:37:22;1.90;99.90
45685;DHT22;46836;48.388;16.210;2023-02-02T03:39:49;1.90;99.90
45685;DHT22;46836;48.388;16.210;2023-02-02T03:42:16;2.00;99.90
45685;DHT22;46836;48.388;16.210;2023-02-02T03:44:43;2.00;99.90
45685;DHT22;46836;48.388;16.210;2023-02-02T03:47:10;2.00;99.90
45685;DHT22;46836;48.388;16.210;2023-02-02T03:49:37;2.00;99.90
45685;DHT22;46836;48.388;16.210;2023-02-02T03:52:04;2.00;99.90
45685;DHT22;46836;48.388;16.210;2023-02-02T03:54:31;2.00;99.90
45685;DHT22;46836;48.388;16.210;2023-02-02T03:56:58;2.00;99.90
45685;DHT22;46836;48.388;16.210;2023-02-02T03:59:25;2.00;99.90
45685;DHT22;46836;48.388;16.210;2023-02-02T04:01:52;2.00;99.90
45685;DHT22;46836;48.388;16.210;2023-02-02T04:04:19;2.00;99.90
45685;DHT22;46836;48.388;16.210;2023-02-02T04:06:46;2.10;99.90
45685;DHT22;46836;48.388;16.210;2023-02-02T04:09:13;2.10;99.90
45685;DHT22;46836;48.388;16.210;2023-02-02T04:11:40;2.20;99.90
45685;DHT22;46836;48.388;16.210;2023-02-02T04:14:09;2.20;99.90
45685;DHT22;46836;48.388;16.210;2023-02-02T04:16:36;2.30;99.90
45685;DHT22;46836;48.388;16.210;2023-02-02T04:19:04;2.30;99.90
45685;DHT22;46836;48.388;16.210;2023-02-02T04:21:31;2.40;99.90
45685;DHT22;46836;48.388;16.210;2023-02-02T04:23:58;2.50;99.90
45685;DHT22;46836;48.388;16.210;2023-02-02T04:26:25;2.50;99.90
45685;DHT22;46836;48.388;16.210;2023-02-02T04:28:53;2.60;99.90
45685;DHT22;46836;48.388;16.210;2023-02-02T04:31:20;2.70;99.90
45685;DHT22;46836;48.388;16.210;2023-02-02T04:33:47;2.70;99.90
45685;DHT22;46836;48.388;16.210;2023-02-02T04:36:14;2.80;99.90
45685;DHT22;46836;48.388;16.210;2023-02-02T04:38:41;2.80;99.90
45685;DHT22;46836;48.388;16.210;2023-02-02T04:41:10;2.80;99.90
45685;DHT22;46836;48.388;16.210;2023-02-02T04:43:37;2.80;99.90
45685;DHT22;46836;48.388;16.210;2023-02-02T04:46:04;2.90;99.90
45685;DHT22;46836;48.388;16.210;2023-02-02T04:48:31;2.90;99.90
45685;DHT22;46836;48.388;16.210;2023-02-02T04:51:04;2.90;99.90
45685;DHT22;46836;48.388;16.210;2023-02-02T04:53:32;3.00;99.90
45685;DHT22;46836;48.388;16.210;2023-02-02T04:56:14;3.00;99.90
45685;DHT22;46836;48.388;16.210;2023-02-02T04:58:43;3.00;99.90
45685;DHT22;46836;48.388;16.210;2023-02-02T05:01:18;3.00;99.90
45685;DHT22;46836;48.388;16.210;2023-02-02T05:03:46;3.00;99.90
45685;DHT22;46836;48.388;16.210;2023-02-02T05:06:15;3.00;99.90
45685;DHT22;46836;48.388;16.210;2023-02-02T05:08:43;3.00;99.90
45685;DHT22;46836;48.388;16.210;2023-02-02T05:11:19;3.00;99.90
45685;DHT22;46836;48.388;16.210;2023-02-02T05:13:48;3.00;99.90
45685;DHT22;46836;48.388;16.210;2023-02-02T05:16:17;3.00;99.90
45685;DHT22;46836;48.388;16.210;2023-02-02T05:18:55;3.00;99.90
45685;DHT22;46836;48.388;16.210;2023-02-02T05:21:23;3.00;99.90
45685;DHT22;46836;48.388;16.210;2023-02-02T05:23:50;3.10;99.90
45685;DHT22;46836;48.388;16.210;2023-02-02T05:26:21;3.10;99.90
45685;DHT22;46836;48.388;16.210;2023-02-02T05:28:48;3.10;99.90
45685;DHT22;46836;48.388;16.210;2023-02-02T05:31:16;3.00;99.90
45685;DHT22;46836;48.388;16.210;2023-02-02T05:33:43;3.00;99.90
45685;DHT22;46836;48.388;16.210;2023-02-02T05:36:10;2.90;99.90
45685;DHT22;46836;48.388;16.210;2023-02-02T05:38:38;2.90;99.90
45685;DHT22;46836;48.388;16.210;2023-02-02T05:41:05;2.80;99.90
45685;DHT22;46836;48.388;16.210;2023-02-02T05:43:32;2.80;99.90
45685;DHT22;46836;48.388;16.210;2023-02-02T05:46:00;2.70;99.90
45685;DHT22;46836;48.388;16.210;2023-02-02T05:48:28;2.70;99.90
45685;DHT22;46836;48.388;16.210;2023-02-02T05:54:02;2.70;99.90
45685;DHT22;46836;48.388;16.210;2023-02-02T05:56:30;2.70;99.90
45685;DHT22;46836;48.388;16.210;2023-02-02T05:58:57;2.70;99.90
45685;DHT22;46836;48.388;16.210;2023-02-02T06:01:26;2.70;99.90
45685;DHT22;46836;48.388;16.210;2023-02-02T06:03:53;2.70;99.90
45685;DHT22;46836;48.388;16.210;2023-02-02T06:06:20;2.60;99.90
45685;DHT22;46836;48.388;16.210;2023-02-02T06:08:47;2.60;99.90
45685;DHT22;46836;48.388;16.210;2023-02-02T06:11:16;2.60;99.90
45685;DHT22;46836;48.388;16.210;2023-02-02T06:13:44;2.60;99.90
45685;DHT22;46836;48.388;16.210;2023-02-02T06:16:12;2.60;99.90
45685;DHT22;46836;48.388;16.210;2023-02-02T06:18:39;2.60;99.90
45685;DHT22;46836;48.388;16.210;2023-02-02T06:21:06;2.60;99.90
45685;DHT22;46836;48.388;16.210;2023-02-02T06:23:34;2.70;99.90
45685;DHT22;46836;48.388;16.210;2023-02-02T06:26:02;2.80;99.90
45685;DHT22;46836;48.388;16.210;2023-02-02T06:28:30;2.80;99.90
45685;DHT22;46836;48.388;16.210;2023-02-02T06:31:09;2.80;99.90
45685;DHT22;46836;48.388;16.210;2023-02-02T06:33:37;2.90;99.90
45685;DHT22;46836;48.388;16.210;2023-02-02T06:36:05;2.90;99.90
45685;DHT22;46836;48.388;16.210;2023-02-02T06:38:32;3.00;99.90
45685;DHT22;46836;48.388;16.210;2023-02-02T06:41:00;3.00;99.90
45685;DHT22;46836;48.388;16.210;2023-02-02T06:43:28;3.00;99.90
45685;DHT22;46836;48.388;16.210;2023-02-02T06:45:59;3.10;99.90
45685;DHT22;46836;48.388;16.210;2023-02-02T06:48:26;3.10;99.90
45685;DHT22;46836;48.388;16.210;2023-02-02T06:50:57;3.10;99.90
45685;DHT22;46836;48.388;16.210;2023-02-02T06:53:25;3.20;99.90
45685;DHT22;46836;48.388;16.210;2023-02-02T06:55:59;3.20;99.90
45685;DHT22;46836;48.388;16.210;2023-02-02T06:58:28;3.30;99.90
45685;DHT22;46836;48.388;16.210;2023-02-02T07:01:04;3.30;99.90
45685;DHT22;46836;48.388;16.210;2023-02-02T07:03:32;3.40;99.90
45685;DHT22;46836;48.388;16.210;2023-02-02T07:06:20;3.40;99.90
45685;DHT22;46836;48.388;16.210;2023-02-02T07:08:49;3.40;99.90
45685;DHT22;46836;48.388;16.210;2023-02-02T07:11:28;3.40;99.90
45685;DHT22;46836;48.388;16.210;2023-02-02T07:13:56;3.40;99.90
45685;DHT22;46836;48.388;16.210;2023-02-02T07:16:23;3.40;99.90
45685;DHT22;46836;48.388;16.210;2023-02-02T07:18:50;3.50;99.90
45685;DHT22;46836;48.388;16.210;2023-02-02T07:21:22;3.50;99.90
45685;DHT22;46836;48.388;16.210;2023-02-02T07:23:50;3.60;99.90
45685;DHT22;46836;48.388;16.210;2023-02-02T07:26:18;3.60;99.90
45685;DHT22;46836;48.388;16.210;2023-02-02T07:28:46;3.60;99.90
45685;DHT22;46836;48.388;16.210;2023-02-02T07:31:14;3.60;99.90
45685;DHT22;46836;48.388;16.210;2023-02-02T07:33:43;3.70;99.90
45685;DHT22;46836;48.388;16.210;2023-02-02T07:36:12;3.70;99.90
45685;DHT22;46836;48.388;16.210;2023-02-02T07:38:42;3.80;99.90
45685;DHT22;46836;48.388;16.210;2023-02-02T07:41:10;3.80;99.90
45685;DHT22;46836;48.388;16.210;2023-02-02T07:43:38;3.90;99.90
45685;DHT22;46836;48.388;16.210;2023-02-02T07:46:06;3.90;99.90
45685;DHT22;46836;48.388;16.210;2023-02-02T07:48:36;4.00;99.90
45685;DHT22;46836;48.388;16.210;2023-02-02T07:51:07;4.00;99.90
45685;DHT22;46836;48.388;16.210;2023-02-02T07:53:34;4.00;99.90
45685;DHT22;46836;48.388;16.210;2023-02-02T07:56:22;4.10;99.90
45685;DHT22;46836;48.388;16.210;2023-02-02T07:58:51;4.00;99.90
45685;DHT22;46836;48.388;16.210;2023-02-02T08:01:19;4.00;99.90
45685;DHT22;46836;48.388;16.210;2023-02-02T08:03:49;4.00;99.90
45685;DHT22;46836;48.388;16.210;2023-02-02T08:06:20;4.10;99.90
45685;DHT22;46836;48.388;16.210;2023-02-02T08:08:48;4.10;99.90
45685;DHT22;46836;48.388;16.210;2023-02-02T08:11:17;4.20;99.90
45685;DHT22;46836;48.388;16.210;2023-02-02T08:13:48;4.20;99.90
45685;DHT22;46836;48.388;16.210;2023-02-02T08:16:15;4.30;99.90
45685;DHT22;46836;48.388;16.210;2023-02-02T08:18:43;4.30;99.90
45685;DHT22;46836;48.388;16.210;2023-02-02T08:21:10;4.40;99.90
45685;DHT22;46836;48.388;16.210;2023-02-02T08:23:39;4.40;99.90
45685;DHT22;46836;48.388;16.210;2023-02-02T08:26:09;4.40;99.90
45685;DHT22;46836;48.388;16.210;2023-02-02T08:28:38;4.40;99.90
45685;DHT22;46836;48.388;16.210;2023-02-02T08:31:09;4.40;99.90
45685;DHT22;46836;48.388;16.210;2023-02-02T08:33:37;4.50;99.90
45685;DHT22;46836;48.388;16.210;2023-02-02T08:36:12;4.50;99.90
45685;DHT22;46836;48.388;16.210;2023-02-02T08:38:40;4.60;99.90
45685;DHT22;46836;48.388;16.210;2023-02-02T08:41:09;4.60;99.90
45685;DHT22;46836;48.388;16.210;2023-02-02T08:43:37;4.60;99.90
45685;DHT22;46836;48.388;16.210;2023-02-02T08:46:04;4.60;99.90
45685;DHT22;46836;48.388;16.210;2023-02-02T08:48:33;4.60;99.90
45685;DHT22;46836;48.388;16.210;2023-02-02T08:51:02;4.60;99.90
45685;DHT22;46836;48.388;16.210;2023-02-02T08:53:30;4.50;99.90
45685;DHT22;46836;48.388;16.210;2023-02-02T08:56:06;4.60;99.90
45685;DHT22;46836;48.388;16.210;2023-02-02T08:58:33;4.60;99.90
45685;DHT22;46836;48.388;16.210;2023-02-02T09:01:10;4.60;99.90
45685;DHT22;46836;48.388;16.210;2023-02-02T09:03:39;4.70;99.90
45685;DHT22;46836;48.388;16.210;2023-02-02T09:06:09;4.70;99.90
45685;DHT22;46836;48.388;16.210;2023-02-02T09:08:37;4.70;99.90
45685;DHT22;46836;48.388;16.210;2023-02-02T09:11:09;4.70;99.90
45685;DHT22;46836;48.388;16.210;2023-02-02T09:13:38;4.70;99.90
45685;DHT22;46836;48.388;16.210;2023-02-02T09:16:08;4.70;99.90
45685;DHT22;46836;48.388;16.210;2023-02-02T09:18:36;4.70;99.90
45685;DHT22;46836;48.388;16.210;2023-02-02T09:21:05;4.70;99.90
45685;DHT22;46836;48.388;16.210;2023-02-02T09:23:35;4.70;99.90
45685;DHT22;46836;48.388;16.210;2023-02-02T09:26:09;4.70;99.90
45685;DHT22;46836;48.388;16.210;2023-02-02T09:28:41;4.80;99.90
45685;DHT22;46836;48.388;16.210;2023-02-02T09:31:09;4.90;99.90
45685;DHT22;46836;48.388;16.210;2023-02-02T09:33:37;4.90;99.90
45685;DHT22;46836;48.388;16.210;2023-02-02T09:36:16;4.90;99.90
45685;DHT22;46836;48.388;16.210;2023-02-02T09:38:43;5.00;99.90
45685;DHT22;46836;48.388;16.210;2023-02-02T09:49:51;5.30;99.90
45685;DHT22;46836;48.388;16.210;2023-02-02T09:52:33;5.30;99.90
45685;DHT22;46836;48.388;16.210;2023-02-02T09:57:42;5.40;99.90
45685;DHT22;46836;48.388;16.210;2023-02-02T10:00:32;5.40;99.90
45685;DHT22;46836;48.388;16.210;2023-02-02T10:03:20;5.40;99.90
45685;DHT22;46836;48.388;16.210;2023-02-02T10:05:52;5.40;99.90
45685;DHT22;46836;48.388;16.210;2023-02-02T10:08:27;5.50;99.90
45685;DHT22;46836;48.388;16.210;2023-02-02T10:11:25;5.50;99.90
45685;DHT22;46836;48.388;16.210;2023-02-02T10:13:59;5.50;99.90
45685;DHT22;46836;48.388;16.210;2023-02-02T10:16:28;5.60;99.90
45685;DHT22;46836;48.388;16.210;2023-02-02T10:19:02;5.60;99.90
45685;DHT22;46836;48.388;16.210;2023-02-02T10:21:45;5.60;99.90
45685;DHT22;46836;48.388;16.210;2023-02-02T10:24:22;5.50;99.90
45685;DHT22;46836;48.388;16.210;2023-02-02T10:27:02;5.50;99.90
45685;DHT22;46836;48.388;16.210;2023-02-02T10:29:55;5.50;99.90
45685;DHT22;46836;48.388;16.210;2023-02-02T10:38:01;5.50;99.90
45685;DHT22;46836;48.388;16.210;2023-02-02T10:46:44;5.50;99.90
45685;DHT22;46836;48.388;16.210;2023-02-02T10:51:48;5.50;99.90
45685;DHT22;46836;48.388;16.210;2023-02-02T11:02:50;5.60;99.90
45685;DHT22;46836;48.388;16.210;2023-02-02T11:05:23;5.60;99.90
45685;DHT22;46836;48.388;16.210;2023-02-02T11:08:16;5.60;99.90
45685;DHT22;46836;48.388;16.210;2023-02-02T11:10:47;5.60;99.90
45685;DHT22;46836;48.388;16.210;2023-02-02T11:13:31;5.60;99.90
45685;DHT22;46836;48.388;16.210;2023-02-02T11:16:29;5.70;99.90
45685;DHT22;46836;48.388;16.210;2023-02-02T11:21:53;5.70;99.90
45685;DHT22;46836;48.388;16.210;2023-02-02T11:24:29;5.70;99.90
45685;DHT22;46836;48.388;16.210;2023-02-02T11:37:52;5.90;99.90
45685;DHT22;46836;48.388;16.210;2023-02-02T11:43:00;5.90;99.90
45685;DHT22;46836;48.388;16.210;2023-02-02T11:45:34;5.90;99.90
45685;DHT22;46836;48.388;16.210;2023-02-02T11:48:23;5.90;99.90
45685;DHT22;46836;48.388;16.210;2023-02-02T11:50:54;6.00;99.90
45685;DHT22;46836;48.388;16.210;2023-02-02T11:53:32;6.00;99.90
45685;DHT22;46836;48.388;16.210;2023-02-02T11:56:06;6.10;99.90
45685;DHT22;46836;48.388;16.210;2023-02-02T11:58:50;6.10;99.90
45685;DHT22;46836;48.388;16.210;2023-02-02T12:01:26;6.10;99.90
45685;DHT22;46836;48.388;16.210;2023-02-02T12:03:55;6.20;99.90
45685;DHT22;46836;48.388;16.210;2023-02-02T12:06:34;6.20;99.90
45685;DHT22;46836;48.388;16.210;2023-02-02T12:09:18;6.30;99.90
45685;DHT22;46836;48.388;16.210;2023-02-02T12:12:01;6.40;99.90
45685;DHT22;46836;48.388;16.210;2023-02-02T12:22:52;6.50;99.90
45685;DHT22;46836;48.388;16.210;2023-02-02T12:33:38;6.60;99.90
45685;DHT22;46836;48.388;16.210;2023-02-02T12:36:24;6.60;99.90
45685;DHT22;46836;48.388;16.210;2023-02-02T12:39:25;6.60;99.90
45685;DHT22;46836;48.388;16.210;2023-02-02T12:47:37;6.60;99.90
45685;DHT22;46836;48.388;16.210;2023-02-02T12:58:26;6.70;99.90
45685;DHT22;46836;48.388;16.210;2023-02-02T13:03:54;6.60;99.90
45685;DHT22;46836;48.388;16.210;2023-02-02T13:06:54;6.60;99.90
45685;DHT22;46836;48.388;16.210;2023-02-02T13:12:11;6.60;99.90
45685;DHT22;46836;48.388;16.210;2023-02-02T13:14:48;6.60;99.90
45685;DHT22;46836;48.388;16.210;2023-02-02T13:17:39;6.60;99.90
45685;DHT22;46836;48.388;16.210;2023-02-02T13:23:01;6.50;99.90
45685;DHT22;46836;48.388;16.210;2023-02-02T13:25:36;6.40;99.90
45685;DHT22;46836;48.388;16.210;2023-02-02T13:28:16;6.40;99.90
45685;DHT22;46836;48.388;16.210;2023-02-02T13:30:46;6.40;99.90
45685;DHT22;46836;48.388;16.210;2023-02-02T13:33:22;6.40;99.90
45685;DHT22;46836;48.388;16.210;2023-02-02T13:36:17;6.40;99.90
45685;DHT22;46836;48.388;16.210;2023-02-02T13:38:55;6.40;99.90
45685;DHT22;46836;48.388;16.210;2023-02-02T13:41:24;6.40;99.90
45685;DHT22;46836;48.388;16.210;2023-02-02T13:44:05;6.40;99.90
45685;DHT22;46836;48.388;16.210;2023-02-02T13:49:28;6.30;99.90
45685;DHT22;46836;48.388;16.210;2023-02-02T14:00:37;6.30;99.90
45685;DHT22;46836;48.388;16.210;2023-02-02T14:06:15;6.40;99.90
45685;DHT22;46836;48.388;16.210;2023-02-02T14:08:58;6.40;99.90
45685;DHT22;46836;48.388;16.210;2023-02-02T14:11:38;6.40;99.90
45685;DHT22;46836;48.388;16.210;2023-02-02T14:14:18;6.30;99.90
45685;DHT22;46836;48.388;16.210;2023-02-02T14:19:50;6.10;99.90
45685;DHT22;46836;48.388;16.210;2023-02-02T14:22:41;6.10;99.90
45685;DHT22;46836;48.388;16.210;2023-02-02T14:28:01;6.00;99.90
45685;DHT22;46836;48.388;16.210;2023-02-02T14:30:33;5.90;99.90
45685;DHT22;46836;48.388;16.210;2023-02-02T14:41:11;5.70;99.90
45685;DHT22;46836;48.388;16.210;2023-02-02T14:44:03;5.70;99.90
45685;DHT22;46836;48.388;16.210;2023-02-02T14:46:35;5.60;99.90
45685;DHT22;46836;48.388;16.210;2023-02-02T14:51:31;5.50;99.90
45685;DHT22;46836;48.388;16.210;2023-02-02T14:54:01;5.50;99.90
45685;DHT22;46836;48.388;16.210;2023-02-02T14:56:48;5.50;99.90
45685;DHT22;46836;48.388;16.210;2023-02-02T14:59:36;5.40;99.90
45685;DHT22;46836;48.388;16.210;2023-02-02T15:04:35;5.30;99.90
45685;DHT22;46836;48.388;16.210;2023-02-02T15:09:54;5.30;99.90
45685;DHT22;46836;48.388;16.210;2023-02-02T15:15:15;5.30;99.90
45685;DHT22;46836;48.388;16.210;2023-02-02T15:18:14;5.20;99.90
45685;DHT22;46836;48.388;16.210;2023-02-02T15:20:46;5.20;99.90
45685;DHT22;46836;48.388;16.210;2023-02-02T15:28:44;5.10;99.90
45685;DHT22;46836;48.388;16.210;2023-02-02T15:31:25;5.00;99.90
45685;DHT22;46836;48.388;16.210;2023-02-02T15:33:57;5.00;99.90
45685;DHT22;46836;48.388;16.210;2023-02-02T15:36:33;5.00;99.90
45685;DHT22;46836;48.388;16.210;2023-02-02T15:39:22;5.00;99.90
45685;DHT22;46836;48.388;16.210;2023-02-02T15:41:53;5.00;99.90
45685;DHT22;46836;48.388;16.210;2023-02-02T15:44:42;5.00;99.90
45685;DHT22;46836;48.388;16.210;2023-02-02T15:47:27;4.90;99.90
45685;DHT22;46836;48.388;16.210;2023-02-02T15:49:55;4.90;99.90
45685;DHT22;46836;48.388;16.210;2023-02-02T15:52:26;4.90;99.90
45685;DHT22;46836;48.388;16.210;2023-02-02T15:54:59;4.80;99.90
45685;DHT22;46836;48.388;16.210;2023-02-02T15:57:29;4.80;99.90
45685;DHT22;46836;48.388;16.210;2023-02-02T15:59:57;4.70;99.90
45685;DHT22;46836;48.388;16.210;2023-02-02T16:02:35;4.70;99.90
45685;DHT22;46836;48.388;16.210;2023-02-02T16:07:56;4.50;99.90
45685;DHT22;46836;48.388;16.210;2023-02-02T16:10:32;4.50;99.90
45685;DHT22;46836;48.388;16.210;2023-02-02T16:13:00;4.40;99.90
45685;DHT22;46836;48.388;16.210;2023-02-02T16:15:29;4.40;99.90
45685;DHT22;46836;48.388;16.210;2023-02-02T16:18:03;4.30;99.90
45685;DHT22;46836;48.388;16.210;2023-02-02T16:20:33;4.30;99.90
45685;DHT22;46836;48.388;16.210;2023-02-02T16:23:02;4.20;99.90
45685;DHT22;46836;48.388;16.210;2023-02-02T16:25:36;4.20;99.90
45685;DHT22;46836;48.388;16.210;2023-02-02T16:28:05;4.10;99.90
45685;DHT22;46836;48.388;16.210;2023-02-02T16:30:37;4.10;99.90
45685;DHT22;46836;48.388;16.210;2023-02-02T16:33:34;4.00;99.90
45685;DHT22;46836;48.388;16.210;2023-02-02T16:36:25;3.90;99.90
45685;DHT22;46836;48.388;16.210;2023-02-02T16:38:53;3.90;99.90
45685;DHT22;46836;48.388;16.210;2023-02-02T16:41:31;3.80;99.90
45685;DHT22;46836;48.388;16.210;2023-02-02T16:50:24;3.70;99.90
45685;DHT22;46836;48.388;16.210;2023-02-02T16:53:01;3.70;99.90
45685;DHT22;46836;48.388;16.210;2023-02-02T16:55:30;3.60;99.90
45685;DHT22;46836;48.388;16.210;2023-02-02T16:58:18;3.60;99.90
45685;DHT22;46836;48.388;16.210;2023-02-02T17:01:07;3.50;99.90
45685;DHT22;46836;48.388;16.210;2023-02-02T17:03:50;3.50;99.90
45685;DHT22;46836;48.388;16.210;2023-02-02T17:06:30;3.50;99.90
45685;DHT22;46836;48.388;16.210;2023-02-02T17:09:29;3.50;99.90
45685;DHT22;46836;48.388;16.210;2023-02-02T17:12:23;3.50;99.90
45685;DHT22;46836;48.388;16.210;2023-02-02T17:15:03;3.40;99.90
45685;DHT22;46836;48.388;16.210;2023-02-02T17:17:48;3.40;99.90
45685;DHT22;46836;48.388;16.210;2023-02-02T17:20:16;3.40;99.90
45685;DHT22;46836;48.388;16.210;2023-02-02T17:23:05;3.40;99.90
45685;DHT22;46836;48.388;16.210;2023-02-02T17:25:40;3.40;99.90
45685;DHT22;46836;48.388;16.210;2023-02-02T17:28:13;3.40;99.90
45685;DHT22;46836;48.388;16.210;2023-02-02T17:30:43;3.50;99.90
45685;DHT22;46836;48.388;16.210;2023-02-02T17:33:12;3.40;99.90
45685;DHT22;46836;48.388;16.210;2023-02-02T17:35:44;3.40;99.90
45685;DHT22;46836;48.388;16.210;2023-02-02T17:38:22;3.40;99.90
45685;DHT22;46836;48.388;16.210;2023-02-02T17:40:50;3.40;99.90
45685;DHT22;46836;48.388;16.210;2023-02-02T17:43:17;3.40;99.90
45685;DHT22;46836;48.388;16.210;2023-02-02T17:45:44;3.40;99.90
45685;DHT22;46836;48.388;16.210;2023-02-02T17:48:13;3.40;99.90
45685;DHT22;46836;48.388;16.210;2023-02-02T17:50:42;3.40;99.90
45685;DHT22;46836;48.388;16.210;2023-02-02T17:53:12;3.30;99.90
45685;DHT22;46836;48.388;16.210;2023-02-02T17:55:42;3.30;99.90
45685;DHT22;46836;48.388;16.210;2023-02-02T17:58:12;3.30;99.90
45685;DHT22;46836;48.388;16.210;2023-02-02T18:00:46;3.30;99.90
45685;DHT22;46836;48.388;16.210;2023-02-02T18:03:22;3.30;99.90
45685;DHT22;46836;48.388;16.210;2023-02-02T18:05:50;3.30;99.90
45685;DHT22;46836;48.388;16.210;2023-02-02T18:08:18;3.40;99.90
45685;DHT22;46836;48.388;16.210;2023-02-02T18:10:45;3.40;99.90
45685;DHT22;46836;48.388;16.210;2023-02-02T18:13:15;3.40;99.90
45685;DHT22;46836;48.388;16.210;2023-02-02T18:15:43;3.40;99.90
45685;DHT22;46836;48.388;16.210;2023-02-02T18:18:16;3.40;99.90
45685;DHT22;46836;48.388;16.210;2023-02-02T18:20:45;3.40;99.90
45685;DHT22;46836;48.388;16.210;2023-02-02T18:23:13;3.40;99.90
45685;DHT22;46836;48.388;16.210;2023-02-02T18:25:40;3.40;99.90
45685;DHT22;46836;48.388;16.210;2023-02-02T18:28:09;3.40;99.90
45685;DHT22;46836;48.388;16.210;2023-02-02T18:30:40;3.40;99.90
45685;DHT22;46836;48.388;16.210;2023-02-02T18:33:08;3.30;99.90
45685;DHT22;46836;48.388;16.210;2023-02-02T18:35:41;3.30;99.90
45685;DHT22;46836;48.388;16.210;2023-02-02T18:38:08;3.20;99.90
45685;DHT22;46836;48.388;16.210;2023-02-02T18:40:40;3.10;99.90
45685;DHT22;46836;48.388;16.210;2023-02-02T18:43:08;3.10;99.90
45685;DHT22;46836;48.388;16.210;2023-02-02T18:45:35;3.00;99.90
45685;DHT22;46836;48.388;16.210;2023-02-02T18:48:03;3.00;99.90
45685;DHT22;46836;48.388;16.210;2023-02-02T18:50:30;3.00;99.90
45685;DHT22;46836;48.388;16.210;2023-02-02T18:52:57;2.90;99.90
45685;DHT22;46836;48.388;16.210;2023-02-02T18:55:25;2.90;99.90